Time;durP1;ratioP1;P1;durP2;ratioP2;P2;SDS_P1;SDS_P2;PMS_P1;PMS_P2;Temp;Humidity;BMP_temperature;BMP_pressure;BME280_temperature;BME280_humidity;BME280_pressure;Samples;Min_cycle;Max_cycle;Signal;HPM_P1;HPM_P2
2023/06/04 00:00:44;;;;;;;8.38;3.17;;;17.20;91.50;;;;;;5021624;28;20049;-58
2023/06/04 00:03:10;;;;;;;4.95;2.53;;;17.20;91.60;;;;;;5022237;28;21282;-61
2023/06/04 00:05:35;;;;;;;7.07;3.13;;;17.20;91.60;;;;;;5023116;28;20044;-58
2023/06/04 00:08:01;;;;;;;5.68;2.28;;;17.10;91.90;;;;;;5022451;28;20659;-56
2023/06/04 00:10:27;;;;;;;4.85;2.60;;;17.10;91.60;;;;;;5023760;28;20514;-58
2023/06/04 00:12:52;;;;;;;6.20;2.60;;;17.10;91.60;;;;;;5022859;28;20038;-59
2023/06/04 00:15:18;;;;;;;5.18;2.30;;;17.00;91.60;;;;;;5022998;28;20042;-58
2023/06/04 00:17:44;;;;;;;5.25;2.75;;;17.00;91.60;;;;;;5037759;28;20052;-58
2023/06/04 00:20:10;;;;;;;5.40;2.33;;;17.00;91.60;;;;;;5023195;28;20041;-58
2023/06/04 00:22:36;;;;;;;8.65;2.85;;;17.00;91.70;;;;;;5019502;28;20045;-58
2023/06/04 00:25:03;;;;;;;6.32;3.20;;;16.90;91.70;;;;;;5019513;28;20181;-58
2023/06/04 00:27:28;;;;;;;4.97;2.42;;;16.80;91.70;;;;;;5023829;28;20049;-58
2023/06/04 00:29:54;;;;;;;7.30;3.20;;;16.80;91.70;;;;;;5023172;28;20370;-58
2023/06/04 00:32:21;;;;;;;4.65;2.85;;;16.80;91.80;;;;;;5021750;28;20145;-58
2023/06/04 00:34:57;;;;;;;7.18;2.53;;;16.80;91.70;;;;;;5020860;28;20460;-58
2023/06/04 00:37:24;;;;;;;4.75;2.97;;;16.80;91.70;;;;;;5020786;28;20129;-58
2023/06/04 00:39:50;;;;;;;3.65;2.10;;;16.70;91.70;;;;;;5021085;28;20064;-58
2023/06/04 00:42:16;;;;;;;3.70;2.28;;;16.70;91.70;;;;;;5023599;28;20052;-57
2023/06/04 00:44:44;;;;;;;3.85;2.10;;;16.70;91.80;;;;;;5021801;28;20046;-58
2023/06/04 00:47:13;;;;;;;4.72;3.17;;;16.60;91.80;;;;;;5023068;28;20057;-57
2023/06/04 00:49:41;;;;;;;3.83;2.90;;;16.60;91.80;;;;;;5023615;28;20168;-58
2023/06/04 00:52:09;;;;;;;8.98;2.92;;;16.60;91.80;;;;;;5022171;28;20045;-57
2023/06/04 00:54:36;;;;;;;7.65;3.20;;;16.60;91.90;;;;;;5020209;28;20134;-57
2023/06/04 00:57:02;;;;;;;6.20;2.55;;;16.50;91.90;;;;;;5025906;28;20045;-57
2023/06/04 00:59:33;;;;;;;4.75;2.25;;;16.50;91.90;;;;;;5026470;28;20042;-58
2023/06/04 01:02:02;;;;;;;8.87;2.80;;;16.50;92.00;;;;;;5023562;28;20922;-58
2023/06/04 01:04:44;;;;;;;6.32;3.08;;;16.50;92.00;;;;;;5024936;28;20041;-58
2023/06/04 01:07:13;;;;;;;4.93;2.40;;;16.50;92.00;;;;;;5026539;28;20729;-58
2023/06/04 01:09:39;;;;;;;7.50;3.15;;;16.40;92.00;;;;;;5025691;28;20065;-58
2023/06/04 01:12:05;;;;;;;7.47;3.05;;;16.30;92.00;;;;;;5023827;28;20041;-58
2023/06/04 01:14:33;;;;;;;6.13;3.38;;;16.30;92.10;;;;;;5026096;28;20046;-58
2023/06/04 01:17:01;;;;;;;4.10;1.90;;;16.30;92.10;;;;;;5024662;28;20709;-57
2023/06/04 01:19:47;;;;;;;8.18;3.15;;;16.30;92.40;;;;;;5025444;28;20055;-58
2023/06/04 01:22:41;;;;;;;5.05;2.35;;;16.20;92.20;;;;;;5026139;28;20424;-59
2023/06/04 01:25:19;;;;;;;5.70;3.17;;;16.20;92.20;;;;;;5024101;28;20626;-58
2023/06/04 01:27:55;;;;;;;5.85;2.72;;;16.20;92.20;;;;;;5026857;28;20057;-56
2023/06/04 01:30:29;;;;;;;4.90;2.30;;;16.10;92.20;;;;;;5026682;28;20041;-58
2023/06/04 01:32:56;;;;;;;5.40;2.53;;;16.10;92.30;;;;;;5025147;28;20575;-57
2023/06/04 01:35:22;;;;;;;3.20;2.08;;;16.00;92.40;;;;;;5022276;28;20041;-58
2023/06/04 01:37:48;;;;;;;8.75;3.08;;;16.00;92.50;;;;;;5024039;28;20133;-57
2023/06/04 01:40:14;;;;;;;4.28;2.45;;;16.00;92.60;;;;;;5023838;28;20042;-57
2023/06/04 01:42:41;;;;;;;5.88;3.45;;;16.00;92.60;;;;;;5020061;28;20045;-57
2023/06/04 01:45:08;;;;;;;5.78;2.83;;;15.90;92.70;;;;;;5024680;28;20050;-58
2023/06/04 01:47:34;;;;;;;3.08;2.15;;;15.80;92.70;;;;;;5024908;28;20141;-58
2023/06/04 01:50:09;;;;;;;5.55;2.30;;;15.80;92.70;;;;;;5055582;28;20045;-58
2023/06/04 01:52:38;;;;;;;5.45;3.17;;;15.80;92.80;;;;;;5025368;28;20196;-57
2023/06/04 01:55:11;;;;;;;4.65;1.95;;;15.80;92.80;;;;;;5023411;28;20045;-58
2023/06/04 01:57:38;;;;;;;7.85;3.03;;;15.80;92.90;;;;;;5022518;28;20050;-58
2023/06/04 02:00:10;;;;;;;5.05;2.20;;;15.70;92.90;;;;;;5021690;28;20582;-57
2023/06/04 02:02:36;;;;;;;8.57;2.30;;;15.80;92.90;;;;;;5024925;28;20173;-62
2023/06/04 02:05:08;;;;;;;5.65;2.63;;;15.70;92.90;;;;;;5023706;28;20046;-58
2023/06/04 02:07:35;;;;;;;;;;;15.70;92.90;;;;;;5025382;28;20053;-58
2023/06/04 02:10:01;;;;;;;4.15;2.47;;;15.60;93.00;;;;;;5041856;28;19921;-58
2023/06/04 02:12:26;;;;;;;6.05;2.20;;;15.60;93.00;;;;;;5024278;28;20157;-58
2023/06/04 02:14:52;;;;;;;5.15;2.60;;;15.60;93.10;;;;;;5025229;28;20117;-57
2023/06/04 02:17:18;;;;;;;5.80;2.08;;;15.50;93.10;;;;;;5023796;28;20527;-57
2023/06/04 02:19:49;;;;;;;6.25;2.38;;;15.50;93.10;;;;;;5022557;28;20704;-58
2023/06/04 02:22:19;;;;;;;3.25;2.22;;;15.50;93.10;;;;;;5025456;28;20072;-57
2023/06/04 02:24:45;;;;;;;6.80;2.42;;;15.40;93.20;;;;;;5024066;28;20041;-57
2023/06/04 02:27:12;;;;;;;4.85;2.20;;;15.40;93.20;;;;;;5025835;28;20045;-57
2023/06/04 02:29:41;;;;;;;3.63;2.70;;;15.40;93.30;;;;;;5023675;28;20068;-58
2023/06/04 02:32:08;;;;;;;3.53;2.40;;;15.40;93.30;;;;;;5025005;28;20037;-58
2023/06/04 02:34:37;;;;;;;9.07;2.60;;;15.40;93.30;;;;;;5025460;28;20045;-58
2023/06/04 02:37:03;;;;;;;5.28;2.58;;;15.40;93.30;;;;;;5022719;28;20045;-57
2023/06/04 02:39:29;;;;;;;4.35;1.83;;;15.30;93.30;;;;;;5020049;28;20044;-58
2023/06/04 02:41:55;;;;;;;7.88;2.33;;;15.30;93.40;;;;;;5025879;28;20116;-57
2023/06/04 02:44:21;;;;;;;7.15;2.88;;;15.30;93.40;;;;;;5023094;28;20084;-58
2023/06/04 02:46:47;;;;;;;5.38;2.85;;;15.20;93.40;;;;;;5022621;28;20095;-57
2023/06/04 02:49:13;;;;;;;5.57;2.08;;;15.30;93.40;;;;;;5023453;28;20039;-57
2023/06/04 02:51:45;;;;;;;7.32;2.95;;;15.20;93.30;;;;;;5023933;28;20075;-58
2023/06/04 02:54:11;;;;;;;3.88;2.30;;;15.20;93.40;;;;;;5021832;28;20045;-57
2023/06/04 02:56:37;;;;;;;7.97;2.53;;;15.20;93.40;;;;;;5024288;28;20081;-57
2023/06/04 02:59:03;;;;;;;5.35;3.10;;;15.20;93.40;;;;;;5021901;28;20061;-58
2023/06/04 03:01:30;;;;;;;10.00;3.10;;;15.20;93.40;;;;;;5022720;28;20042;-57
2023/06/04 03:04:03;;;;;;;10.10;2.80;;;15.10;93.40;;;;;;5024004;28;20053;-57
2023/06/04 03:06:29;;;;;;;2.65;1.60;;;15.10;93.50;;;;;;5022960;28;20108;-57
2023/06/04 03:08:55;;;;;;;4.47;2.88;;;15.10;93.40;;;;;;5018049;28;20049;-58
2023/06/04 03:11:21;;;;;;;4.00;2.25;;;15.10;93.50;;;;;;5021292;28;20046;-57
2023/06/04 03:13:48;;;;;;;5.65;2.03;;;15.10;93.50;;;;;;5025537;28;20107;-57
2023/06/04 03:16:14;;;;;;;8.40;2.40;;;15.00;93.40;;;;;;5024739;28;20046;-57
2023/06/04 03:18:41;;;;;;;9.07;2.50;;;15.00;93.50;;;;;;5022257;28;20731;-59
2023/06/04 03:21:07;;;;;;;8.98;3.13;;;15.00;93.50;;;;;;5022213;28;20052;-58
2023/06/04 03:23:34;;;;;;;4.65;2.03;;;15.00;93.60;;;;;;5025538;28;20041;-58
2023/06/04 03:26:04;;;;;;;6.65;2.92;;;14.90;93.60;;;;;;5020473;28;20049;-57
2023/06/04 03:28:32;;;;;;;4.00;2.17;;;14.90;93.60;;;;;;5024463;28;20450;-57
2023/06/04 03:30:58;;;;;;;4.20;2.13;;;14.90;93.60;;;;;;5023147;28;20052;-58
2023/06/04 03:33:24;;;;;;;5.15;2.30;;;14.80;93.60;;;;;;5024785;28;20042;-58
2023/06/04 03:35:50;;;;;;;3.45;2.00;;;14.90;93.60;;;;;;5022373;28;20077;-57
2023/06/04 03:38:16;;;;;;;5.78;2.17;;;14.80;93.60;;;;;;5020153;28;20091;-57
2023/06/04 03:40:42;;;;;;;4.43;2.33;;;14.80;93.60;;;;;;5023712;28;20089;-58
2023/06/04 03:43:09;;;;;;;4.40;2.25;;;14.80;93.70;;;;;;5025247;28;20464;-57
2023/06/04 03:45:34;;;;;;;3.45;2.03;;;14.70;93.70;;;;;;5022450;28;20708;-58
2023/06/04 03:48:00;;;;;;;7.63;3.45;;;14.70;93.70;;;;;;5021703;28;20041;-58
2023/06/04 03:50:26;;;;;;;6.53;2.40;;;14.70;93.70;;;;;;5022129;28;20503;-57
2023/06/04 03:52:52;;;;;;;3.90;2.22;;;14.70;93.70;;;;;;5023792;28;20439;-59
2023/06/04 03:55:18;;;;;;;4.75;2.38;;;14.70;93.70;;;;;;5021407;28;20076;-57
2023/06/04 03:57:44;;;;;;;2.38;1.83;;;14.70;93.70;;;;;;5023455;28;20046;-57
2023/06/04 04:00:12;;;;;;;4.47;2.13;;;14.60;93.80;;;;;;5020576;28;20565;-57
2023/06/04 04:02:42;;;;;;;5.85;2.35;;;14.60;93.90;;;;;;5025393;28;20038;-57
2023/06/04 04:05:08;;;;;;;3.65;1.90;;;14.60;93.90;;;;;;5022603;28;20046;-58
2023/06/04 04:07:35;;;;;;;4.30;2.03;;;14.60;94.00;;;;;;5024591;28;20041;-57
2023/06/04 04:10:01;;;;;;;3.97;2.05;;;14.60;93.90;;;;;;5020573;28;20037;-57
2023/06/04 04:12:27;;;;;;;7.00;2.30;;;14.60;93.90;;;;;;5025040;28;20095;-57
2023/06/04 04:14:52;;;;;;;4.82;2.38;;;14.60;94.00;;;;;;5024997;28;20479;-57
2023/06/04 04:17:18;;;;;;;5.07;1.80;;;14.60;94.00;;;;;;5024680;28;20042;-58
2023/06/04 04:19:44;;;;;;;6.00;2.05;;;14.60;94.00;;;;;;5021643;28;20123;-57
2023/06/04 04:22:17;;;;;;;5.00;2.30;;;14.60;94.00;;;;;;5023938;28;20435;-58
2023/06/04 04:24:43;;;;;;;5.57;1.90;;;14.50;94.00;;;;;;5018926;28;20624;-58
2023/06/04 04:27:10;;;;;;;8.23;2.58;;;14.60;94.00;;;;;;5022272;28;20435;-57
2023/06/04 04:29:38;;;;;;;8.88;2.53;;;14.50;94.00;;;;;;5024397;28;20042;-57
2023/06/04 04:32:10;;;;;;;4.03;1.92;;;14.60;94.00;;;;;;5026570;28;20489;-57
2023/06/04 04:34:37;;;;;;;;;;;14.60;94.10;;;;;;5026445;28;20038;-57
2023/06/04 04:37:03;;;;;;;6.38;3.50;;;14.50;94.00;;;;;;5024391;28;20427;-57
2023/06/04 04:39:29;;;;;;;4.22;2.00;;;14.50;94.10;;;;;;5024180;28;20037;-58
2023/06/04 04:41:55;;;;;;;4.25;2.50;;;14.50;94.10;;;;;;5024544;28;20037;-57
2023/06/04 04:44:21;;;;;;;3.38;2.05;;;14.50;94.10;;;;;;5025345;28;20586;-57
2023/06/04 04:46:48;;;;;;;7.97;2.65;;;14.50;94.10;;;;;;5025224;28;20092;-57
2023/06/04 04:49:14;;;;;;;5.22;2.90;;;14.50;94.20;;;;;;5026762;28;20041;-58
2023/06/04 04:51:40;;;;;;;4.78;1.90;;;14.50;94.20;;;;;;5027398;28;20042;-58
2023/06/04 04:54:05;;;;;;;8.13;2.65;;;14.50;94.20;;;;;;5024428;28;20422;-57
2023/06/04 04:56:37;;;;;;;3.70;2.30;;;14.50;94.50;;;;;;5025525;28;20129;-57
2023/06/04 04:59:02;;;;;;;5.50;2.50;;;14.50;94.20;;;;;;5025310;28;20038;-57
2023/06/04 05:01:28;;;;;;;6.70;2.22;;;14.50;94.30;;;;;;5024576;28;20038;-57
2023/06/04 05:03:54;;;;;;;6.38;2.65;;;14.50;94.30;;;;;;5025412;28;20833;-57
2023/06/04 05:06:21;;;;;;;9.27;2.17;;;14.60;94.30;;;;;;5026970;28;20042;-57
2023/06/04 05:08:47;;;;;;;6.60;2.33;;;14.60;94.30;;;;;;5025190;28;20855;-58
2023/06/04 05:11:13;;;;;;;5.07;2.00;;;14.60;94.30;;;;;;5025298;28;20038;-58
2023/06/04 05:13:40;;;;;;;4.00;1.85;;;14.60;94.30;;;;;;5025411;28;20041;-57
2023/06/04 05:16:06;;;;;;;5.22;2.47;;;14.60;94.30;;;;;;5024875;28;20078;-57
2023/06/04 05:18:40;;;;;;;3.80;1.95;;;14.60;94.30;;;;;;5026457;28;20038;-57
2023/06/04 05:21:06;;;;;;;3.33;2.00;;;14.60;94.30;;;;;;5026110;28;20584;-57
2023/06/04 05:23:34;;;;;;;2.83;1.80;;;14.60;94.30;;;;;;5025331;28;20103;-57
2023/06/04 05:26:01;;;;;;;3.95;1.48;;;14.60;94.30;;;;;;5023918;28;20582;-58
2023/06/04 05:28:27;;;;;;;5.35;2.33;;;14.60;94.20;;;;;;5024949;28;20043;-57
2023/06/04 05:30:58;;;;;;;4.97;2.67;;;14.60;94.30;;;;;;5023916;28;20045;-57
2023/06/04 05:33:24;;;;;;;4.07;1.98;;;14.60;94.30;;;;;;5024287;28;20045;-57
2023/06/04 05:35:59;;;;;;;3.95;2.13;;;14.70;94.40;;;;;;5025556;28;20046;-57
2023/06/04 05:38:30;;;;;;;4.90;2.25;;;14.70;94.30;;;;;;5025520;28;20053;-57
2023/06/04 05:40:56;;;;;;;5.22;1.95;;;14.70;94.40;;;;;;5023120;28;20049;-57
2023/06/04 05:43:22;;;;;;;3.90;2.22;;;14.70;94.30;;;;;;5024828;28;20057;-56
2023/06/04 05:45:48;;;;;;;5.50;2.03;;;14.70;94.30;;;;;;5024990;28;20566;-58
2023/06/04 05:48:14;;;;;;;4.75;1.90;;;14.70;94.40;;;;;;5023892;28;20050;-57
2023/06/04 05:50:40;;;;;;;5.63;2.05;;;14.70;94.40;;;;;;5024410;28;20045;-57
2023/06/04 05:53:05;;;;;;;5.57;1.88;;;14.70;94.30;;;;;;5023586;28;20120;-57
2023/06/04 05:55:31;;;;;;;5.35;1.95;;;14.70;94.40;;;;;;5025124;28;20562;-57
2023/06/04 05:57:57;;;;;;;3.55;2.10;;;14.70;94.50;;;;;;5023160;28;20065;-57
2023/06/04 06:00:23;;;;;;;6.88;2.33;;;14.80;94.50;;;;;;5025528;28;20184;-58
2023/06/04 06:02:50;;;;;;;2.50;1.33;;;14.80;94.50;;;;;;5024243;28;20488;-57
2023/06/04 06:05:17;;;;;;;4.53;1.80;;;14.90;94.50;;;;;;5026069;28;20665;-58
2023/06/04 06:07:44;;;;;;;3.83;1.70;;;14.90;94.50;;;;;;5027736;28;20117;-58
2023/06/04 06:10:10;;;;;;;4.75;1.77;;;15.00;94.50;;;;;;5024178;28;20826;-58
2023/06/04 06:12:35;;;;;;;6.60;2.20;;;15.00;94.50;;;;;;5022438;28;20286;-58
2023/06/04 06:15:01;;;;;;;2.72;1.70;;;15.00;94.60;;;;;;5023154;28;20770;-58
2023/06/04 06:17:28;;;;;;;3.53;1.95;;;15.00;94.60;;;;;;5026295;28;20504;-58
2023/06/04 06:19:54;;;;;;;3.70;1.55;;;15.00;94.70;;;;;;5024672;28;20582;-57
2023/06/04 06:22:20;;;;;;;3.20;2.00;;;15.00;94.70;;;;;;5026992;28;20056;-58
2023/06/04 06:24:48;;;;;;;5.88;1.77;;;15.10;94.70;;;;;;5022930;28;20434;-58
2023/06/04 06:27:15;;;;;;;2.88;1.58;;;15.10;94.80;;;;;;5025215;28;20797;-58
2023/06/04 06:29:41;;;;;;;7.93;3.50;;;15.20;94.80;;;;;;5023840;28;20038;-58
2023/06/04 06:32:07;;;;;;;5.10;2.00;;;15.20;94.80;;;;;;5024411;28;20050;-57
2023/06/04 06:34:33;;;;;;;3.45;1.88;;;15.20;94.80;;;;;;5024166;28;20082;-58
2023/06/04 06:36:59;;;;;;;4.50;1.90;;;15.30;94.90;;;;;;5023522;28;20049;-58
2023/06/04 06:39:24;;;;;;;4.80;2.00;;;15.30;94.80;;;;;;5024163;28;20048;-58
2023/06/04 06:41:50;;;;;;;5.53;2.20;;;15.30;94.90;;;;;;5023235;28;20041;-57
2023/06/04 06:44:16;;;;;;;4.78;2.50;;;15.40;94.90;;;;;;5024446;28;20119;-57
2023/06/04 06:46:41;;;;;;;2.88;1.70;;;15.40;94.90;;;;;;5022850;28;20061;-58
2023/06/04 06:49:08;;;;;;;5.53;2.33;;;15.50;94.90;;;;;;5023494;28;20136;-58
2023/06/04 06:51:33;;;;;;;6.32;2.20;;;15.50;94.90;;;;;;5024566;28;20950;-58
2023/06/04 06:53:59;;;;;;;7.60;2.00;;;15.50;94.90;;;;;;5023930;28;20084;-58
2023/06/04 06:56:26;;;;;;;1.52;1.25;;;15.60;95.00;;;;;;5022910;28;20754;-58
2023/06/04 06:58:51;;;;;;;5.88;2.55;;;15.60;95.00;;;;;;5024677;28;20518;-58
2023/06/04 07:01:17;;;;;;;3.42;1.88;;;15.60;95.00;;;;;;5023551;28;20049;-58
2023/06/04 07:03:43;;;;;;;4.07;2.20;;;15.70;95.10;;;;;;5024708;28;20049;-58
2023/06/04 07:06:09;;;;;;;2.97;1.77;;;15.70;95.10;;;;;;5022161;28;20614;-58
2023/06/04 07:08:35;;;;;;;3.55;2.60;;;15.80;95.10;;;;;;5021371;28;20371;-58
2023/06/04 07:11:02;;;;;;;5.65;2.17;;;15.80;95.10;;;;;;5021466;28;20045;-57
2023/06/04 07:13:28;;;;;;;4.38;2.38;;;15.90;95.20;;;;;;5021605;28;20052;-58
2023/06/04 07:15:54;;;;;;;4.80;1.88;;;16.00;95.20;;;;;;5019017;28;20061;-57
2023/06/04 07:18:20;;;;;;;3.45;1.80;;;16.00;95.20;;;;;;5021467;28;20069;-58
2023/06/04 07:20:46;;;;;;;4.03;2.42;;;16.10;95.20;;;;;;5018140;28;20120;-58
2023/06/04 07:23:11;;;;;;;4.30;1.88;;;16.10;95.20;;;;;;5021874;28;20097;-58
2023/06/04 07:25:37;;;;;;;4.93;1.77;;;16.20;95.20;;;;;;5024034;28;20046;-58
2023/06/04 07:28:04;;;;;;;3.28;2.08;;;16.20;95.10;;;;;;5019672;28;20487;-58
2023/06/04 07:30:33;;;;;;;3.28;1.85;;;16.30;95.10;;;;;;5023855;28;20052;-58
2023/06/04 07:32:59;;;;;;;4.97;2.35;;;16.40;94.90;;;;;;5018540;28;20056;-59
2023/06/04 07:35:25;;;;;;;4.75;1.75;;;16.40;94.80;;;;;;5022936;28;20037;-59
2023/06/04 07:37:51;;;;;;;5.00;2.30;;;16.40;94.80;;;;;;5020121;28;20515;-58
2023/06/04 07:40:17;;;;;;;7.82;3.70;;;16.50;94.70;;;;;;5053390;28;20045;-62
2023/06/04 07:42:45;;;;;;;5.57;2.17;;;16.50;94.60;;;;;;5022426;28;20048;-59
2023/06/04 07:45:10;;;;;;;5.90;2.15;;;16.60;94.60;;;;;;5021160;28;20084;-58
2023/06/04 07:47:36;;;;;;;3.22;1.83;;;16.70;94.50;;;;;;5022263;28;20055;-58
2023/06/04 07:50:03;;;;;;;4.70;2.08;;;16.70;94.50;;;;;;5020482;28;20049;-58
2023/06/04 07:52:30;;;;;;;4.75;2.58;;;16.70;94.40;;;;;;5021486;28;20116;-58
2023/06/04 07:54:56;;;;;;;2.78;1.73;;;16.80;94.30;;;;;;5023049;28;20046;-57
2023/06/04 07:57:22;;;;;;;4.10;2.00;;;16.90;94.30;;;;;;5022998;28;20168;-59
2023/06/04 07:59:49;;;;;;;5.97;2.28;;;16.90;94.30;;;;;;5024654;28;20416;-58
2023/06/04 08:02:14;;;;;;;4.28;2.42;;;16.90;94.30;;;;;;5020387;28;20077;-58
2023/06/04 08:04:40;;;;;;;4.50;3.08;;;17.00;94.40;;;;;;5023485;28;20041;-58
2023/06/04 08:07:06;;;;;;;6.28;1.75;;;17.10;94.30;;;;;;5023897;28;20050;-58
2023/06/04 08:09:32;;;;;;;5.38;2.30;;;17.10;94.30;;;;;;5056084;28;20052;-58
2023/06/04 08:11:57;;;;;;;3.53;2.25;;;17.20;94.10;;;;;;5017825;28;20053;-57
2023/06/04 08:14:26;;;;;;;3.78;2.08;;;17.20;94.20;;;;;;5024099;28;20037;-57
2023/06/04 08:16:55;;;;;;;4.57;2.80;;;17.30;94.30;;;;;;5023297;28;20121;-58
2023/06/04 08:19:21;;;;;;;5.43;2.58;;;17.40;94.10;;;;;;5020951;28;20558;-58
2023/06/04 08:21:47;;;;;;;4.50;2.80;;;17.40;94.00;;;;;;5022443;28;20101;-58
2023/06/04 08:24:13;;;;;;;1.98;1.52;;;17.40;94.00;;;;;;5019446;28;20042;-58
2023/06/04 08:26:39;;;;;;;5.05;2.08;;;17.50;93.70;;;;;;5050796;28;20332;-59
2023/06/04 08:29:05;;;;;;;8.13;2.47;;;17.50;93.60;;;;;;5018448;28;20050;-58
2023/06/04 08:31:32;;;;;;;4.13;1.83;;;17.50;93.60;;;;;;5022576;28;20146;-58
2023/06/04 08:33:57;;;;;;;5.00;2.40;;;17.60;93.60;;;;;;5021854;28;20038;-59
2023/06/04 08:36:23;;;;;;;6.78;1.85;;;17.70;93.50;;;;;;5022173;28;20041;-59
2023/06/04 08:38:50;;;;;;;6.18;2.65;;;17.70;93.60;;;;;;5019874;28;20127;-58
2023/06/04 08:41:30;;;;;;;5.45;2.55;;;17.70;93.40;;;;;;5021283;28;20045;-59
2023/06/04 08:43:57;;;;;;;5.53;2.33;;;17.80;93.30;;;;;;5021213;28;20133;-58
2023/06/04 08:46:23;;;;;;;7.55;2.13;;;17.80;93.20;;;;;;5021943;28;20618;-59
2023/06/04 08:48:50;;;;;;;4.57;2.33;;;17.80;93.20;;;;;;5018918;28;20124;-59
2023/06/04 08:51:16;;;;;;;2.83;1.70;;;17.90;93.30;;;;;;5052642;28;20537;-58
2023/06/04 08:53:42;;;;;;;4.15;2.25;;;17.90;93.20;;;;;;5017085;28;20072;-58
2023/06/04 08:56:08;;;;;;;4.40;2.03;;;18.00;93.00;;;;;;5019631;28;20276;-59
2023/06/04 08:58:36;;;;;;;3.85;2.22;;;18.10;92.80;;;;;;5020595;28;20130;-60
2023/06/04 09:01:02;;;;;;;6.22;2.35;;;18.10;92.90;;;;;;5022351;28;20089;-59
2023/06/04 09:03:32;;;;;;;3.08;1.60;;;18.20;92.80;;;;;;5021376;28;20086;-60
2023/06/04 09:05:59;;;;;;;4.63;1.92;;;18.20;92.60;;;;;;5023303;28;20049;-59
2023/06/04 09:08:27;;;;;;;3.53;1.90;;;18.30;92.50;;;;;;5020499;28;20088;-59
2023/06/04 09:10:55;;;;;;;4.82;2.45;;;18.30;92.50;;;;;;5020906;28;20091;-59
2023/06/04 09:13:26;;;;;;;4.50;2.15;;;18.40;92.50;;;;;;5016662;28;20072;-59
2023/06/04 09:16:05;;;;;;;5.27;2.63;;;18.40;92.40;;;;;;5024542;28;20045;-59
2023/06/04 09:18:32;;;;;;;4.40;1.88;;;18.40;92.30;;;;;;5025330;28;20045;-59
2023/06/04 09:21:08;;;;;;;3.58;1.75;;;18.50;92.30;;;;;;5025282;28;20823;-60
2023/06/04 09:23:43;;;;;;;6.55;2.65;;;18.60;92.10;;;;;;5024631;28;20116;-59
2023/06/04 09:26:10;;;;;;;3.22;1.80;;;18.60;92.00;;;;;;5040352;28;20057;-57
2023/06/04 09:28:39;;;;;;;3.30;1.98;;;18.70;92.00;;;;;;5027592;28;20554;-59
2023/06/04 09:31:16;;;;;;;3.25;1.92;;;18.70;92.00;;;;;;5023336;28;20050;-59
2023/06/04 09:33:48;;;;;;;4.63;3.42;;;18.80;91.90;;;;;;5024728;28;20034;-58
2023/06/04 09:36:14;;;;;;;4.55;2.58;;;18.80;91.90;;;;;;5025720;28;20057;-58
2023/06/04 09:38:40;;;;;;;5.32;2.92;;;18.80;91.90;;;;;;5026800;28;20586;-58
2023/06/04 09:41:13;;;;;;;3.95;2.10;;;19.00;91.60;;;;;;5024847;28;20084;-60
2023/06/04 09:43:39;;;;;;;3.28;1.90;;;19.00;91.60;;;;;;5027873;28;20044;-58
2023/06/04 09:46:16;;;;;;;7.72;3.28;;;19.10;91.50;;;;;;5026320;28;20053;-58
2023/06/04 09:48:43;;;;;;;4.95;2.17;;;19.10;91.40;;;;;;5026988;28;20057;-58
2023/06/04 09:51:15;;;;;;;3.28;2.00;;;19.10;91.40;;;;;;5025889;28;20643;-57
2023/06/04 09:53:41;;;;;;;3.72;2.60;;;19.20;91.20;;;;;;5027148;28;20037;-58
2023/06/04 09:56:08;;;;;;;7.53;3.75;;;19.30;91.10;;;;;;5057347;28;20048;-58
2023/06/04 09:58:35;;;;;;;5.57;2.33;;;19.40;90.80;;;;;;5058126;28;20057;-58
2023/06/04 10:01:04;;;;;;;11.00;2.78;;;19.40;90.70;;;;;;5027211;28;20038;-58
2023/06/04 10:03:35;;;;;;;3.58;2.00;;;19.50;90.60;;;;;;5026908;28;20125;-59
2023/06/04 10:06:05;;;;;;;6.53;2.50;;;19.40;90.60;;;;;;5022272;28;20045;-59
2023/06/04 10:08:33;;;;;;;5.82;2.78;;;19.50;90.50;;;;;;5026011;28;20081;-58
2023/06/04 10:11:01;;;;;;;3.47;2.38;;;19.50;90.40;;;;;;5025999;28;20041;-59
2023/06/04 10:13:30;;;;;;;4.03;2.30;;;19.50;90.50;;;;;;5022273;28;20046;-59
2023/06/04 10:15:58;;;;;;;5.32;2.45;;;19.60;90.50;;;;;;5025179;28;20946;-59
2023/06/04 10:18:25;;;;;;;4.63;2.85;;;19.60;90.60;;;;;;5024654;28;20053;-58
2023/06/04 10:20:55;;;;;;;3.35;2.30;;;19.60;90.50;;;;;;5021441;28;20049;-58
2023/06/04 10:23:22;;;;;;;7.38;2.95;;;19.70;90.10;;;;;;5026212;28;20096;-59
2023/06/04 10:25:53;;;;;;;6.90;2.20;;;19.80;89.80;;;;;;5026534;28;20161;-57
2023/06/04 10:28:20;;;;;;;4.55;2.28;;;19.80;88.60;;;;;;5041073;28;20038;-59
2023/06/04 10:30:50;;;;;;;3.30;1.85;;;19.90;88.30;;;;;;5026235;28;20054;-58
2023/06/04 10:33:24;;;;;;;5.80;2.00;;;19.90;87.50;;;;;;5026127;28;20034;-57
2023/06/04 10:35:55;;;;;;;7.40;2.00;;;20.10;86.30;;;;;;5023005;28;20057;-59
2023/06/04 10:38:22;;;;;;;6.47;2.30;;;20.10;85.50;;;;;;5024769;28;20676;-58
2023/06/04 10:40:47;;;;;;;5.60;2.95;;;20.10;85.50;;;;;;5027085;28;20806;-58
2023/06/04 10:43:15;;;;;;;5.82;2.03;;;20.10;85.80;;;;;;5024577;28;20165;-59
2023/06/04 10:45:42;;;;;;;4.03;2.50;;;20.10;85.80;;;;;;5025351;28;20057;-60
2023/06/04 10:48:09;;;;;;;4.13;2.28;;;20.20;85.20;;;;;;5025379;28;20046;-59
2023/06/04 10:50:47;;;;;;;6.05;2.28;;;20.30;85.40;;;;;;5024289;28;20046;-58
2023/06/04 10:53:13;;;;;;;3.08;1.85;;;20.30;84.40;;;;;;5022066;28;20066;-59
2023/06/04 10:55:49;;;;;;;5.60;2.40;;;20.30;83.00;;;;;;5021116;28;20133;-59
2023/06/04 10:58:15;;;;;;;3.78;2.08;;;20.40;82.80;;;;;;5020729;28;20053;-58
2023/06/04 11:00:45;;;;;;;4.13;2.47;;;20.40;82.20;;;;;;5025865;28;20096;-58
2023/06/04 11:03:12;;;;;;;6.32;2.25;;;20.50;81.50;;;;;;5024864;28;20042;-59
2023/06/04 11:05:40;;;;;;;3.78;2.17;;;20.50;80.50;;;;;;5025743;28;20206;-58
2023/06/04 11:08:06;;;;;;;6.25;2.33;;;20.50;80.70;;;;;;5024798;28;20567;-59
2023/06/04 11:10:34;;;;;;;8.63;3.95;;;20.50;80.60;;;;;;5025098;28;20170;-58
2023/06/04 11:13:00;;;;;;;5.90;2.25;;;20.50;81.50;;;;;;5021104;28;20037;-59
2023/06/04 11:15:26;;;;;;;8.68;3.40;;;20.50;80.90;;;;;;5025821;28;20049;-58
2023/06/04 11:17:53;;;;;;;3.97;3.13;;;20.50;80.70;;;;;;5022113;28;20112;-59
2023/06/04 11:20:20;;;;;;;3.58;1.73;;;20.60;80.20;;;;;;5023649;28;20133;-59
2023/06/04 11:22:57;;;;;;;3.08;1.88;;;20.60;79.60;;;;;;5024347;28;20045;-57
2023/06/04 11:25:26;;;;;;;3.30;2.10;;;20.60;78.40;;;;;;5025559;28;20041;-58
2023/06/04 11:27:54;;;;;;;3.17;1.90;;;20.70;77.20;;;;;;5024491;28;20073;-58
2023/06/04 11:30:20;;;;;;;5.25;3.17;;;20.70;76.80;;;;;;5025068;28;20128;-59
2023/06/04 11:32:45;;;;;;;6.57;2.17;;;20.70;77.00;;;;;;5024043;28;20717;-58
2023/06/04 11:35:11;;;;;;;5.80;1.90;;;20.80;76.90;;;;;;5024974;28;20042;-59
2023/06/04 11:37:38;;;;;;;4.35;1.77;;;20.90;76.40;;;;;;5024889;28;20128;-59
2023/06/04 11:40:18;;;;;;;6.22;1.70;;;20.90;75.90;;;;;;5024314;28;20042;-59
2023/06/04 11:42:48;;;;;;;4.25;1.67;;;20.90;75.60;;;;;;5022987;28;20918;-59
2023/06/04 11:45:15;;;;;;;3.20;1.75;;;21.00;75.70;;;;;;5023527;28;20507;-59
2023/06/04 11:47:55;;;;;;;5.97;1.80;;;21.00;75.40;;;;;;5023793;28;20068;-60
2023/06/04 11:50:21;;;;;;;5.05;1.98;;;21.00;75.00;;;;;;5023717;28;20130;-59
2023/06/04 11:52:48;;;;;;;8.98;1.90;;;21.00;74.80;;;;;;5023174;28;20049;-58
2023/06/04 11:55:17;;;;;;;3.53;1.80;;;21.10;74.80;;;;;;5023400;28;20531;-59
2023/06/04 11:57:43;;;;;;;2.38;1.67;;;21.10;74.50;;;;;;5025358;28;20077;-59
2023/06/04 12:00:10;;;;;;;5.00;1.65;;;21.20;74.10;;;;;;5024675;28;20096;-58
2023/06/04 12:02:37;;;;;;;2.60;1.88;;;21.30;72.90;;;;;;5025908;28;20042;-59
2023/06/04 12:05:18;;;;;;;2.03;1.48;;;21.20;73.40;;;;;;5024799;28;20065;-59
2023/06/04 12:07:44;;;;;;;6.45;2.63;;;21.30;74.00;;;;;;5023874;28;20076;-59
2023/06/04 12:10:14;;;;;;;2.92;1.38;;;21.30;73.90;;;;;;5022234;28;20061;-58
2023/06/04 12:12:43;;;;;;;3.33;1.98;;;21.30;73.70;;;;;;5023334;28;20076;-58
2023/06/04 12:15:09;;;;;;;8.48;2.30;;;21.50;72.10;;;;;;5022979;28;20144;-58
2023/06/04 12:17:48;;;;;;;2.90;1.48;;;21.50;71.90;;;;;;5022950;28;20053;-58
2023/06/04 12:20:14;;;;;;;5.43;2.45;;;21.50;72.00;;;;;;5019516;28;20531;-59
2023/06/04 12:22:47;;;;;;;5.40;1.60;;;21.50;72.20;;;;;;5024043;28;20125;-58
2023/06/04 12:25:25;;;;;;;2.75;1.70;;;21.60;71.80;;;;;;5024125;28;20045;-59
2023/06/04 12:27:50;;;;;;;5.72;1.55;;;21.60;72.00;;;;;;5024764;28;20462;-60
2023/06/04 12:30:17;;;;;;;2.90;1.65;;;21.60;72.50;;;;;;5024067;28;20579;-59
2023/06/04 12:32:43;;;;;;;4.82;1.83;;;21.70;72.20;;;;;;5023098;28;20049;-58
2023/06/04 12:35:09;;;;;;;2.90;1.80;;;21.70;72.50;;;;;;5019777;28;20037;-60
2023/06/04 12:37:35;;;;;;;4.10;1.85;;;21.70;70.80;;;;;;5022773;28;20041;-59
2023/06/04 12:40:01;;;;;;;10.90;2.60;;;21.70;71.10;;;;;;5022458;28;20336;-58
2023/06/04 12:42:27;;;;;;;3.47;1.92;;;21.80;70.50;;;;;;5024411;28;20038;-58
2023/06/04 12:44:53;;;;;;;3.03;2.10;;;21.80;70.80;;;;;;5023942;28;20053;-58
2023/06/04 12:47:20;;;;;;;3.95;2.10;;;21.90;70.30;;;;;;5020138;28;20069;-59
2023/06/04 12:49:46;;;;;;;4.03;1.65;;;21.90;70.00;;;;;;5023569;28;20543;-58